Aviation Digital Data Service (ADDS)

Output produced by TAFs form (0534 UTC 31 October 2014)
found at http://aviationweather.gov/adds/tafs/
 
KRIL 310520Z 3106/0106 14003KT P6SM FEW250 
     FM311900 23006KT P6SM BKN250